Time;durP1;ratioP1;P1;durP2;ratioP2;P2;SDS_P1;SDS_P2;PMS_P1;PMS_P2;Temp;Humidity;BMP_temperature;BMP_pressure;BME280_temperature;BME280_humidity;BME280_pressure;Samples;Min_cycle;Max_cycle;Signal;HPM_P1;HPM_P2
2022/12/07 00:01:55;;;;;;;4.75;3.15;;;;;10.20;101605.00;;;;5023497;28;20193;-75
2022/12/07 00:04:23;;;;;;;5.22;3.00;;;;;10.20;101602.00;;;;5021663;28;20224;-75
2022/12/07 00:06:53;;;;;;;4.03;3.05;;;;;10.20;101606.00;;;;5009142;28;20607;-75
2022/12/07 00:09:21;;;;;;;3.42;2.53;;;;;10.20;101600.00;;;;5010795;28;20247;-75
2022/12/07 00:11:51;;;;;;;4.10;3.20;;;;;10.20;101607.00;;;;5012741;28;20205;-75
2022/12/07 00:14:20;;;;;;;5.13;3.45;;;;;10.20;101604.00;;;;5011541;28;20205;-75
2022/12/07 00:16:51;;;;;;;5.03;3.55;;;;;10.20;101601.00;;;;5015325;28;20662;-75
2022/12/07 00:19:18;;;;;;;3.88;3.13;;;;;10.20;101602.00;;;;5012994;28;20203;-76
2022/12/07 00:21:46;;;;;;;5.10;3.28;;;;;10.20;101597.00;;;;5009335;28;20205;-75
2022/12/07 00:24:13;;;;;;;3.90;3.22;;;;;10.10;101602.00;;;;5018926;28;20204;-75
2022/12/07 00:26:43;;;;;;;3.88;2.95;;;;;10.10;101596.00;;;;5018834;28;20204;-75
2022/12/07 00:29:16;;;;;;;4.60;3.33;;;;;10.10;101594.00;;;;5013992;28;20263;-75
2022/12/07 00:31:45;;;;;;;5.10;3.10;;;;;10.10;101591.00;;;;5009729;28;20224;-75
2022/12/07 00:34:14;;;;;;;3.90;2.95;;;;;10.10;101591.00;;;;5014574;28;20192;-75
2022/12/07 00:36:42;;;;;;;4.38;3.13;;;;;10.10;101590.00;;;;5029155;28;20220;-75
2022/12/07 00:39:09;;;;;;;3.85;3.13;;;;;10.00;101587.00;;;;5028022;28;20196;-75
2022/12/07 00:41:36;;;;;;;4.72;3.30;;;;;10.00;101589.00;;;;5012180;28;20251;-75
2022/12/07 00:44:04;;;;;;;4.35;3.40;;;;;10.00;101584.00;;;;5012862;28;20204;-75
2022/12/07 00:46:31;;;;;;;3.90;3.20;;;;;9.90;101584.00;;;;5014700;28;20229;-75
2022/12/07 00:49:00;;;;;;;3.85;3.13;;;;;9.90;101581.00;;;;5015221;28;20208;-75
2022/12/07 00:51:27;;;;;;;4.18;3.08;;;;;9.90;101588.00;;;;5026081;28;20581;-75
2022/12/07 00:53:55;;;;;;;3.45;2.78;;;;;9.80;101578.00;;;;5019092;28;20577;-75
2022/12/07 00:56:24;;;;;;;3.75;2.70;;;;;9.80;101574.00;;;;5022313;28;20193;-75
2022/12/07 00:58:52;;;;;;;3.88;3.22;;;;;9.80;101573.00;;;;5016677;28;20204;-76
2022/12/07 01:01:20;;;;;;;3.88;2.95;;;;;9.70;101568.00;;;;5014967;28;20212;-76
2022/12/07 01:03:47;;;;;;;3.13;2.83;;;;;9.70;101561.00;;;;5021623;28;20288;-76
2022/12/07 01:06:18;;;;;;;4.18;3.28;;;;;9.60;101563.00;;;;5008782;28;20224;-76
2022/12/07 01:08:45;;;;;;;4.35;2.90;;;;;9.60;101563.00;;;;5008551;28;20213;-77
2022/12/07 01:11:17;;;;;;;3.80;2.92;;;;;9.50;101565.00;;;;5017539;28;20698;-76
2022/12/07 01:13:45;;;;;;;3.53;3.00;;;;;9.50;101566.00;;;;5008981;28;20558;-77
2022/12/07 01:16:15;;;;;;;3.00;2.70;;;;;9.50;101572.00;;;;5031281;28;20658;-76
2022/12/07 01:18:43;;;;;;;3.22;2.80;;;;;9.40;101574.00;;;;5023092;28;20553;-76
2022/12/07 01:21:13;;;;;;;3.30;2.67;;;;;9.40;101579.00;;;;5019630;28;20201;-76
2022/12/07 01:23:42;;;;;;;4.25;3.10;;;;;9.30;101585.00;;;;5015746;28;20196;-76
2022/12/07 01:26:13;;;;;;;3.58;3.10;;;;;9.30;101593.00;;;;5015009;28;20229;-76
2022/12/07 01:28:41;;;;;;;3.80;2.92;;;;;9.30;101593.00;;;;5012754;28;20197;-76
2022/12/07 01:31:11;;;;;;;4.28;3.75;;;;;9.20;101584.00;;;;5029556;28;20192;-76
2022/12/07 01:33:40;;;;;;;3.30;2.92;;;;;9.20;101579.00;;;;5019413;28;20209;-76
2022/12/07 01:36:09;;;;;;;4.32;3.25;;;;;9.20;101578.00;;;;5014121;28;20229;-76
2022/12/07 01:38:36;;;;;;;4.22;2.70;;;;;9.20;101576.00;;;;5030365;28;20204;-76
2022/12/07 01:41:05;;;;;;;3.88;3.05;;;;;9.10;101570.00;;;;5021098;28;20205;-76
2022/12/07 01:43:34;;;;;;;4.18;3.05;;;;;9.10;101570.00;;;;5012564;28;20197;-76
2022/12/07 01:46:02;;;;;;;3.72;3.03;;;;;9.10;101576.00;;;;5030484;28;20235;-75
2022/12/07 01:48:33;;;;;;;3.00;2.45;;;;;9.00;101574.00;;;;5031303;28;20685;-76
2022/12/07 01:51:05;;;;;;;3.13;2.60;;;;;9.00;101567.00;;;;5014424;28;20209;-76
2022/12/07 01:53:35;;;;;;;2.65;2.40;;;;;8.90;101575.00;;;;5015894;28;20718;-76
2022/12/07 01:56:06;;;;;;;2.90;2.35;;;;;8.90;101571.00;;;;5019280;28;20197;-76
2022/12/07 01:58:33;;;;;;;2.50;2.25;;;;;8.90;101573.00;;;;5015085;28;20207;-76
2022/12/07 02:01:01;;;;;;;2.80;2.50;;;;;8.90;101570.00;;;;5011141;28;20687;-76
2022/12/07 02:03:32;;;;;;;3.97;2.53;;;;;8.80;101564.00;;;;5011046;28;20211;-75
2022/12/07 02:06:00;;;;;;;2.78;2.38;;;;;8.80;101566.00;;;;5010284;28;20228;-76
2022/12/07 02:08:28;;;;;;;4.88;2.92;;;;;8.80;101568.00;;;;5010696;28;20765;-76
2022/12/07 02:10:56;;;;;;;2.15;1.95;;;;;8.80;101565.00;;;;5015829;28;20205;-76
2022/12/07 02:13:28;;;;;;;4.40;2.50;;;;;8.70;101572.00;;;;5010586;28;20204;-76
2022/12/07 02:16:14;;;;;;;2.83;2.33;;;;;8.60;101575.00;;;;5011280;28;20201;-75
2022/12/07 02:18:53;;;;;;;2.20;2.00;;;;;8.60;101578.00;;;;5020540;28;20188;-75
2022/12/07 02:21:30;;;;;;;3.08;2.03;;;;;8.60;101573.00;;;;5010742;28;20219;-76
2022/12/07 02:24:15;;;;;;;2.05;1.60;;;;;8.50;101567.00;;;;5014765;28;20189;-76
2022/12/07 02:26:59;;;;;;;2.65;2.05;;;;;8.50;101570.00;;;;5016447;28;20226;-75
2022/12/07 02:29:30;;;;;;;3.25;2.25;;;;;8.60;101570.00;;;;5011645;28;20213;-76
2022/12/07 02:32:04;;;;;;;2.65;2.08;;;;;8.60;101564.00;;;;5012909;28;20200;-76
2022/12/07 02:34:37;;;;;;;4.13;2.10;;;;;8.60;101562.00;;;;5010441;28;20212;-76
2022/12/07 02:37:13;;;;;;;2.30;2.00;;;;;8.60;101568.00;;;;5011646;28;20226;-76
2022/12/07 02:39:45;;;;;;;2.38;1.98;;;;;8.60;101570.00;;;;5009913;28;20200;-76
2022/12/07 02:42:18;;;;;;;2.53;2.20;;;;;8.60;101572.00;;;;5009574;28;20569;-76
2022/12/07 02:44:47;;;;;;;2.53;2.17;;;;;8.70;101565.00;;;;5013218;28;20204;-76
2022/12/07 02:47:18;;;;;;;2.47;1.95;;;;;8.70;101562.00;;;;5018434;28;20649;-76
2022/12/07 02:49:45;;;;;;;2.88;2.03;;;;;8.70;101556.00;;;;5009993;28;20802;-76
2022/12/07 02:52:13;;;;;;;3.10;2.30;;;;;8.80;101563.00;;;;5025481;28;20203;-76
2022/12/07 02:54:40;;;;;;;2.38;1.85;;;;;8.80;101565.00;;;;5014216;28;20197;-76
2022/12/07 02:57:26;;;;;;;2.90;1.92;;;;;8.70;101566.00;;;;5027675;28;20203;-76
2022/12/07 03:00:03;;;;;;;2.92;1.98;;;;;8.80;101558.00;;;;5028077;28;20685;-76
2022/12/07 03:02:42;;;;;;;2.05;1.83;;;;;8.80;101566.00;;;;5027018;28;20226;-76
2022/12/07 03:05:21;;;;;;;2.80;1.88;;;;;8.80;101563.00;;;;5017417;28;20216;-76
2022/12/07 03:07:57;;;;;;;2.05;1.85;;;;;8.80;101550.00;;;;5027920;28;20204;-76
2022/12/07 03:10:33;;;;;;;4.47;2.42;;;;;8.90;101547.00;;;;5009918;28;20217;-76
2022/12/07 03:13:07;;;;;;;3.00;1.95;;;;;8.90;101557.00;;;;5010016;28;20205;-76
2022/12/07 03:15:43;;;;;;;2.50;1.88;;;;;8.80;101554.00;;;;5022580;28;20661;-76
2022/12/07 03:18:14;;;;;;;1.92;1.60;;;;;8.90;101558.00;;;;5024886;28;20657;-76
2022/12/07 03:20:45;;;;;;;2.22;2.03;;;;;8.90;101566.00;;;;5012423;28;20201;-76
2022/12/07 03:23:15;;;;;;;3.90;2.25;;;;;8.90;101577.00;;;;5008956;28;20239;-76
2022/12/07 03:25:47;;;;;;;2.65;1.80;;;;;8.90;101575.00;;;;5008722;28;20224;-76
2022/12/07 03:28:17;;;;;;;2.13;1.60;;;;;9.00;101557.00;;;;5009110;28;20197;-76
2022/12/07 03:30:53;;;;;;;3.05;1.85;;;;;9.00;101555.00;;;;5008313;28;20212;-76
2022/12/07 03:33:25;;;;;;;2.05;1.85;;;;;9.00;101550.00;;;;5013746;28;20204;-76
2022/12/07 03:35:59;;;;;;;2.10;1.80;;;;;9.00;101542.00;;;;5009898;28;20220;-76
2022/12/07 03:38:30;;;;;;;4.57;2.20;;;;;9.10;101542.00;;;;5008350;28;20204;-76
2022/12/07 03:41:04;;;;;;;3.30;2.10;;;;;9.10;101552.00;;;;5018454;28;20203;-76
2022/12/07 03:43:31;;;;;;;1.90;1.73;;;;;9.10;101543.00;;;;5009302;28;20196;-76
2022/12/07 03:46:14;;;;;;;1.80;1.65;;;;;9.10;101538.00;;;;5008352;28;20228;-76
2022/12/07 03:48:48;;;;;;;3.00;2.00;;;;;9.10;101542.00;;;;5009314;28;20193;-76
2022/12/07 03:51:23;;;;;;;2.25;1.70;;;;;9.10;101543.00;;;;5015846;28;20200;-76
2022/12/07 03:53:56;;;;;;;2.05;1.67;;;;;9.10;101538.00;;;;5024243;28;20215;-76
2022/12/07 03:56:24;;;;;;;2.20;1.88;;;;;9.10;101540.00;;;;5021932;28;20200;-76
2022/12/07 03:58:53;;;;;;;2.38;2.13;;;;;9.10;101536.00;;;;5013189;28;20216;-76
2022/12/07 04:01:23;;;;;;;3.70;2.15;;;;;9.10;101542.00;;;;5021247;28;20209;-76
2022/12/07 04:03:50;;;;;;;1.95;1.65;;;;;9.10;101541.00;;;;5009664;28;20212;-76
2022/12/07 04:06:18;;;;;;;1.90;1.70;;;;;9.10;101538.00;;;;5017445;28;20232;-76
2022/12/07 04:08:45;;;;;;;3.25;2.40;;;;;9.10;101536.00;;;;5010298;28;20209;-76
2022/12/07 04:11:12;;;;;;;2.55;2.15;;;;;9.10;101541.00;;;;5011492;28;20208;-76
2022/12/07 04:16:22;;;;;;;2.75;2.17;;;;;9.10;101551.00;;;;5012360;28;20250;-76
2022/12/07 04:18:49;;;;;;;1.85;1.70;;;;;9.10;101547.00;;;;5007983;28;20209;-76
2022/12/07 04:21:17;;;;;;;3.63;2.28;;;;;9.10;101543.00;;;;5007244;28;20204;-76
2022/12/07 04:23:44;;;;;;;2.40;2.20;;;;;9.10;101538.00;;;;5008120;28;20201;-76
2022/12/07 04:26:11;;;;;;;2.22;1.90;;;;;9.10;101538.00;;;;5007351;28;20228;-76
2022/12/07 04:28:39;;;;;;;1.70;1.60;;;;;9.10;101537.00;;;;5008178;28;20189;-76
2022/12/07 04:31:06;;;;;;;2.85;1.65;;;;;9.10;101538.00;;;;5008037;28;20215;-76
2022/12/07 04:33:36;;;;;;;4.63;1.77;;;;;9.10;101535.00;;;;5008186;28;20215;-76
2022/12/07 04:36:03;;;;;;;3.83;2.28;;;;;9.10;101531.00;;;;5008311;28;20235;-77
2022/12/07 04:38:30;;;;;;;2.30;1.67;;;;;9.10;101526.00;;;;5009401;28;20204;-76
2022/12/07 04:40:57;;;;;;;3.13;2.00;;;;;9.00;101532.00;;;;5023882;28;20204;-76
2022/12/07 04:43:25;;;;;;;2.83;1.77;;;;;9.00;101530.00;;;;5023358;28;20201;-76
2022/12/07 04:45:52;;;;;;;2.53;1.95;;;;;9.00;101535.00;;;;5010694;28;20231;-76
2022/12/07 04:48:19;;;;;;;3.10;1.98;;;;;9.00;101526.00;;;;5012523;28;20193;-76
2022/12/07 04:50:50;;;;;;;1.85;1.60;;;;;8.90;101540.00;;;;5008515;28;20208;-76
2022/12/07 04:53:18;;;;;;;2.05;1.63;;;;;8.90;101547.00;;;;5014652;28;20215;-76
2022/12/07 04:55:46;;;;;;;2.70;2.00;;;;;8.90;101558.00;;;;5010371;28;20201;-76
2022/12/07 04:58:14;;;;;;;1.73;1.50;;;;;8.90;101551.00;;;;5019243;28;20585;-76
2022/12/07 05:00:42;;;;;;;3.10;2.22;;;;;8.90;101541.00;;;;5015700;28;20215;-77
2022/12/07 05:03:10;;;;;;;1.67;1.38;;;;;8.90;101529.00;;;;5008437;28;20193;-77
2022/12/07 05:05:40;;;;;;;1.67;1.15;;;;;8.90;101515.00;;;;5023236;28;20216;-76
2022/12/07 05:08:09;;;;;;;4.68;1.40;;;;;8.90;101509.00;;;;5017750;28;20198;-77
2022/12/07 05:10:36;;;;;;;2.17;1.40;;;;;9.00;101515.00;;;;5008431;28;20197;-77
2022/12/07 05:13:03;;;;;;;3.15;1.23;;;;;9.00;101516.00;;;;5008113;28;20576;-76
2022/12/07 05:15:31;;;;;;;1.77;1.15;;;;;9.00;101513.00;;;;5008615;28;20208;-77
2022/12/07 05:17:58;;;;;;;3.08;1.60;;;;;9.00;101517.00;;;;5018784;28;20197;-76
2022/12/07 05:20:25;;;;;;;1.95;1.35;;;;;9.00;101521.00;;;;5020924;28;20196;-76
2022/12/07 05:22:53;;;;;;;4.72;1.90;;;;;9.00;101518.00;;;;5015265;28;20201;-76
2022/12/07 05:25:21;;;;;;;3.08;1.42;;;;;9.00;101515.00;;;;5010845;28;20197;-77
2022/12/07 05:27:48;;;;;;;1.90;1.17;;;;;9.00;101517.00;;;;5007695;28;20613;-76
2022/12/07 05:30:16;;;;;;;1.83;1.42;;;;;9.00;101509.00;;;;5013614;28;20200;-76
2022/12/07 05:32:43;;;;;;;1.70;1.27;;;;;9.00;101514.00;;;;5013140;28;20645;-76
2022/12/07 05:35:11;;;;;;;2.05;1.08;;;;;9.00;101513.00;;;;5006288;28;20233;-76
2022/12/07 05:37:39;;;;;;;2.00;1.50;;;;;9.00;101519.00;;;;5007351;28;20185;-76
2022/12/07 05:40:08;;;;;;;1.77;1.15;;;;;9.00;101520.00;;;;5007331;28;20203;-76
2022/12/07 05:42:35;;;;;;;2.35;1.60;;;;;9.00;101517.00;;;;5007913;28;20713;-76
2022/12/07 05:45:03;;;;;;;2.80;1.23;;;;;9.00;101517.00;;;;5007629;28;20193;-76
2022/12/07 05:47:31;;;;;;;1.48;1.10;;;;;9.00;101513.00;;;;5016272;28;20224;-76
2022/12/07 05:50:00;;;;;;;1.90;1.42;;;;;9.00;101509.00;;;;5020963;28;20287;-76
2022/12/07 05:52:28;;;;;;;1.77;1.38;;;;;9.00;101510.00;;;;5011852;28;20200;-76
2022/12/07 05:54:55;;;;;;;3.28;1.20;;;;;9.00;101515.00;;;;5012435;28;20200;-76
2022/12/07 05:57:23;;;;;;;1.58;1.40;;;;;9.00;101511.00;;;;5016973;28;20197;-76
2022/12/07 05:59:50;;;;;;;2.15;1.38;;;;;9.00;101519.00;;;;5009707;28;20200;-76
2022/12/07 06:02:18;;;;;;;2.35;1.23;;;;;9.00;101517.00;;;;5012716;28;20197;-76
2022/12/07 06:04:47;;;;;;;1.85;1.23;;;;;8.90;101510.00;;;;5012354;28;20197;-76
2022/12/07 06:07:16;;;;;;;2.25;0.88;;;;;8.90;101515.00;;;;5023557;28;20227;-76
2022/12/07 06:09:44;;;;;;;2.30;1.00;;;;;8.90;101511.00;;;;5012493;28;20227;-76
2022/12/07 06:15:10;;;;;;;1.92;0.98;;;;;8.90;101521.00;;;;4966613;28;20720;-76
2022/12/07 06:17:37;;;;;;;1.92;1.00;;;;;8.90;101510.00;;;;5001498;28;20196;-76
2022/12/07 06:20:06;;;;;;;6.00;1.40;;;;;8.90;101516.00;;;;5028654;28;20200;-76
2022/12/07 06:22:33;;;;;;;1.48;1.05;;;;;8.90;101517.00;;;;5018163;28;20205;-76
2022/12/07 06:25:01;;;;;;;1.77;1.10;;;;;8.90;101523.00;;;;5024704;28;20196;-76
2022/12/07 06:27:28;;;;;;;2.10;1.10;;;;;8.90;101521.00;;;;5022355;28;20219;-76
2022/12/07 06:29:55;;;;;;;2.55;1.27;;;;;8.80;101517.00;;;;5027131;28;20196;-77
2022/12/07 06:32:24;;;;;;;1.77;1.30;;;;;8.80;101524.00;;;;5024900;28;20185;-77
2022/12/07 06:34:51;;;;;;;1.80;1.27;;;;;8.80;101518.00;;;;5020544;28;20209;-76
2022/12/07 06:37:18;;;;;;;1.65;1.00;;;;;8.80;101517.00;;;;5012011;28;20201;-76
2022/12/07 06:39:46;;;;;;;1.35;1.08;;;;;8.80;101517.00;;;;5015251;28;20204;-76
2022/12/07 06:42:13;;;;;;;3.28;1.40;;;;;8.80;101518.00;;;;5028059;28;20210;-76
2022/12/07 06:44:40;;;;;;;4.07;1.52;;;;;8.80;101521.00;;;;5021911;28;20201;-76
2022/12/07 06:47:09;;;;;;;1.30;0.90;;;;;8.80;101525.00;;;;5017538;28;20217;-77
2022/12/07 06:49:37;;;;;;;2.03;1.00;;;;;8.80;101519.00;;;;5016180;28;20671;-77
2022/12/07 06:52:05;;;;;;;2.58;0.90;;;;;8.80;101525.00;;;;5020261;28;20227;-77
2022/12/07 06:54:33;;;;;;;1.75;1.27;;;;;8.80;101522.00;;;;5012655;28;20263;-77
2022/12/07 06:57:00;;;;;;;1.40;0.85;;;;;8.80;101518.00;;;;5024922;28;20216;-76
2022/12/07 06:59:27;;;;;;;2.00;1.10;;;;;8.80;101524.00;;;;5012399;28;20197;-76
2022/12/07 07:01:55;;;;;;;3.20;1.13;;;;;8.80;101519.00;;;;5013582;28;20208;-76
2022/12/07 07:04:22;;;;;;;3.97;1.50;;;;;8.80;101517.00;;;;5016184;28;20192;-77
2022/12/07 07:06:50;;;;;;;1.90;1.20;;;;;8.80;101516.00;;;;5020442;28;20225;-76
2022/12/07 07:09:18;;;;;;;1.55;1.17;;;;;8.80;101514.00;;;;5011020;28;20204;-76
2022/12/07 07:11:45;;;;;;;2.63;1.58;;;;;8.80;101518.00;;;;5009537;28;20220;-76
2022/12/07 07:14:12;;;;;;;3.42;1.95;;;;;8.80;101521.00;;;;5010294;28;20193;-76
2022/12/07 07:16:40;;;;;;;4.82;1.05;;;;;8.80;101519.00;;;;5014289;28;20193;-76
2022/12/07 07:19:07;;;;;;;2.65;1.52;;;;;8.80;101512.00;;;;5010846;28;20201;-76
2022/12/07 07:21:34;;;;;;;2.25;1.38;;;;;8.80;101518.00;;;;5015940;28;20216;-76
2022/12/07 07:24:03;;;;;;;2.40;1.35;;;;;8.80;101522.00;;;;5013677;28;20255;-76
2022/12/07 07:26:31;;;;;;;2.30;1.83;;;;;8.90;101517.00;;;;5010634;28;20221;-76
2022/12/07 07:28:58;;;;;;;2.53;1.10;;;;;8.90;101516.00;;;;5013147;28;20193;-76
2022/12/07 07:31:25;;;;;;;2.72;1.50;;;;;8.90;101514.00;;;;5012079;28;20200;-76
2022/12/07 07:33:52;;;;;;;2.30;1.70;;;;;8.90;101513.00;;;;5017426;28;20204;-77
2022/12/07 07:36:21;;;;;;;3.15;1.63;;;;;8.90;101519.00;;;;5009399;28;20248;-79
2022/12/07 07:38:48;;;;;;;4.95;3.20;;;;;8.80;101523.00;;;;5022220;28;20463;-76
2022/12/07 07:41:16;;;;;;;2.60;2.08;;;;;8.90;101522.00;;;;5009547;28;20189;-76
2022/12/07 07:43:44;;;;;;;2.75;1.30;;;;;8.90;101521.00;;;;5009386;28;20201;-76
2022/12/07 07:46:11;;;;;;;2.40;1.77;;;;;8.90;101522.00;;;;5010036;28;20215;-76
2022/12/07 07:48:38;;;;;;;3.22;1.67;;;;;8.80;101524.00;;;;5010117;28;20193;-76
2022/12/07 07:51:07;;;;;;;3.15;1.45;;;;;8.80;101526.00;;;;5012957;28;20211;-76
2022/12/07 07:53:34;;;;;;;3.00;1.60;;;;;8.80;101523.00;;;;5023575;28;20250;-76
2022/12/07 07:56:02;;;;;;;4.45;1.60;;;;;8.80;101525.00;;;;5027548;28;20577;-77
2022/12/07 07:58:30;;;;;;;2.65;1.65;;;;;8.70;101517.00;;;;5025590;28;20227;-76
2022/12/07 08:01:03;;;;;;;3.88;2.42;;;;;8.70;101525.00;;;;5012671;28;20769;-76
2022/12/07 08:03:31;;;;;;;2.45;1.65;;;;;8.70;101521.00;;;;5020161;28;20582;-76
2022/12/07 08:05:58;;;;;;;4.97;1.88;;;;;8.70;101520.00;;;;5027906;28;20718;-76
2022/12/07 08:08:26;;;;;;;3.35;1.40;;;;;8.70;101519.00;;;;5018040;28;20220;-76
2022/12/07 08:10:53;;;;;;;4.00;2.22;;;;;8.60;101522.00;;;;5017315;28;20211;-76
2022/12/07 08:13:20;;;;;;;4.22;2.15;;;;;8.60;101524.00;;;;5022935;28;20200;-76
2022/12/07 08:15:49;;;;;;;3.35;1.80;;;;;8.60;101531.00;;;;5024714;28;20207;-76
2022/12/07 08:18:17;;;;;;;3.55;1.70;;;;;8.60;101530.00;;;;5028760;28;20196;-76
2022/12/07 08:20:44;;;;;;;5.75;2.25;;;;;8.60;101527.00;;;;5022553;28;20266;-76
2022/12/07 08:23:12;;;;;;;2.90;2.20;;;;;8.60;101533.00;;;;5008483;28;20208;-76
2022/12/07 08:25:40;;;;;;;3.72;2.60;;;;;8.60;101530.00;;;;5016533;28;20193;-76
2022/12/07 08:28:08;;;;;;;3.58;2.40;;;;;8.60;101531.00;;;;5008325;28;20225;-76
2022/12/07 08:30:35;;;;;;;3.25;2.30;;;;;8.60;101531.00;;;;5011281;28;20219;-76
2022/12/07 08:33:04;;;;;;;4.13;3.10;;;;;8.60;101539.00;;;;5009460;28;20209;-76
2022/12/07 08:35:33;;;;;;;4.63;3.08;;;;;8.60;101540.00;;;;5019143;28;20244;-76
2022/12/07 08:38:02;;;;;;;4.38;2.58;;;;;8.70;101542.00;;;;5016112;28;20208;-76
2022/12/07 08:40:30;;;;;;;3.47;2.47;;;;;8.70;101549.00;;;;5008748;28;20724;-76
2022/12/07 08:42:57;;;;;;;6.20;3.13;;;;;8.80;101550.00;;;;5008872;28;20207;-76
2022/12/07 08:45:24;;;;;;;6.18;3.55;;;;;8.90;101555.00;;;;5013743;28;20199;-76
2022/12/07 08:47:55;;;;;;;5.35;3.78;;;;;9.00;101560.00;;;;5007722;28;20235;-76
2022/12/07 08:50:24;;;;;;;10.27;3.20;;;;;9.00;101553.00;;;;5013500;28;20216;-76
2022/12/07 08:52:54;;;;;;;5.78;3.40;;;;;9.10;101548.00;;;;5015543;28;20728;-76
2022/12/07 08:55:22;;;;;;;9.25;3.78;;;;;9.20;101544.00;;;;5010102;28;20205;-76
2022/12/07 08:57:50;;;;;;;5.40;3.30;;;;;9.20;101550.00;;;;5015218;28;20208;-76
2022/12/07 09:00:17;;;;;;;4.10;3.13;;;;;9.30;101551.00;;;;5017818;28;20205;-76
2022/12/07 09:02:45;;;;;;;4.93;2.85;;;;;9.40;101544.00;;;;5013682;28;20215;-76
2022/12/07 09:05:14;;;;;;;6.18;3.00;;;;;9.50;101547.00;;;;5016313;28;20221;-76
2022/12/07 09:07:44;;;;;;;6.45;2.80;;;;;9.50;101541.00;;;;5010538;28;20216;-76
2022/12/07 09:10:12;;;;;;;3.72;2.50;;;;;9.60;101544.00;;;;5010924;28;20665;-76
2022/12/07 09:12:39;;;;;;;2.85;2.47;;;;;9.70;101543.00;;;;5021620;28;20205;-76
2022/12/07 09:15:07;;;;;;;3.33;2.00;;;;;9.80;101549.00;;;;5012382;28;20197;-76
2022/12/07 09:17:36;;;;;;;2.92;1.67;;;;;9.80;101546.00;;;;5014548;28;20864;-77
2022/12/07 09:20:07;;;;;;;2.45;1.95;;;;;9.90;101547.00;;;;5011346;28;20274;-76
2022/12/07 09:22:34;;;;;;;4.22;2.10;;;;;10.00;101555.00;;;;5012820;28;20192;-76
2022/12/07 09:25:03;;;;;;;2.08;1.35;;;;;10.00;101551.00;;;;5014702;28;20196;-76
2022/12/07 09:27:31;;;;;;;2.50;1.38;;;;;10.10;101547.00;;;;5009954;28;20225;-76
2022/12/07 09:29:58;;;;;;;2.33;1.50;;;;;10.20;101547.00;;;;5021849;28;20196;-76
2022/12/07 09:32:25;;;;;;;3.25;1.90;;;;;10.20;101548.00;;;;5020295;28;20205;-76
2022/12/07 09:34:53;;;;;;;4.25;1.30;;;;;10.30;101547.00;;;;5016079;28;20199;-76
2022/12/07 09:37:20;;;;;;;2.17;1.25;;;;;10.40;101537.00;;;;5013681;28;20200;-76
2022/12/07 09:39:47;;;;;;;3.00;1.30;;;;;10.50;101535.00;;;;5025851;28;20204;-77
2022/12/07 09:42:27;;;;;;;1.80;1.02;;;;;10.50;101536.00;;;;5014398;28;20201;-77
2022/12/07 09:44:55;;;;;;;2.33;1.20;;;;;10.60;101547.00;;;;5025927;28;20202;-76
2022/12/07 09:47:22;;;;;;;2.00;1.00;;;;;10.60;101535.00;;;;5015546;28;20709;-77
2022/12/07 09:49:50;;;;;;;3.60;1.00;;;;;10.70;101533.00;;;;5024271;28;20219;-77
2022/12/07 09:52:22;;;;;;;1.90;0.95;;;;;10.70;101541.00;;;;5015323;28;20196;-77
2022/12/07 09:54:51;;;;;;;3.22;0.90;;;;;10.80;101535.00;;;;5021295;28;20694;-77
2022/12/07 09:57:23;;;;;;;3.33;0.90;;;;;10.80;101538.00;;;;5012716;28;20216;-77
2022/12/07 09:59:50;;;;;;;4.40;1.02;;;;;10.90;101536.00;;;;5015544;28;20200;-77
2022/12/07 10:02:32;;;;;;;1.73;0.77;;;;;10.90;101542.00;;;;5021282;28;20196;-77
2022/12/07 10:05:00;;;;;;;3.08;1.30;;;;;11.10;101530.00;;;;5024614;28;20669;-77
2022/12/07 10:07:28;;;;;;;2.85;1.52;;;;;11.10;101542.00;;;;5026084;28;20219;-77
2022/12/07 10:09:55;;;;;;;6.35;2.58;;;;;11.20;101541.00;;;;5024600;28;20188;-77
2022/12/07 10:12:24;;;;;;;8.18;2.17;;;;;11.20;101536.00;;;;5035345;28;20443;-78
2022/12/07 10:14:56;;;;;;;2.60;1.45;;;;;11.30;101531.00;;;;5030618;28;20754;-78
2022/12/07 10:17:40;;;;;;;3.65;1.25;;;;;11.30;101531.00;;;;5019324;28;20211;-77
2022/12/07 10:20:22;;;;;;;2.42;1.15;;;;;11.40;101524.00;;;;5008457;28;20204;-77
2022/12/07 10:22:58;;;;;;;3.97;1.20;;;;;11.50;101518.00;;;;5014256;28;20208;-76
2022/12/07 10:25:31;;;;;;;1.17;0.80;;;;;11.60;101517.00;;;;5018447;28;20203;-76
2022/12/07 10:28:11;;;;;;;1.77;0.70;;;;;11.60;101510.00;;;;5019406;28;20215;-76
2022/12/07 10:30:58;;;;;;;1.48;1.00;;;;;11.70;101510.00;;;;5014554;28;20197;-76
2022/12/07 10:33:31;;;;;;;2.58;0.77;;;;;11.80;101501.00;;;;5024624;28;20667;-77
2022/12/07 10:36:00;;;;;;;2.30;0.70;;;;;11.90;101502.00;;;;5018599;28;20239;-77
2022/12/07 10:38:30;;;;;;;1.25;0.90;;;;;11.90;101495.00;;;;5026757;28;20203;-77
2022/12/07 10:41:08;;;;;;;0.95;0.50;;;;;11.90;101492.00;;;;5024789;28;20206;-77
2022/12/07 10:43:37;;;;;;;2.80;0.90;;;;;12.00;101491.00;;;;5014950;28;20671;-77
2022/12/07 10:46:52;;;;;;;1.67;0.70;;;;;12.00;101499.00;;;;5009720;28;20660;-77
2022/12/07 10:49:46;;;;;;;2.25;0.57;;;;;12.00;101491.00;;;;4995242;28;20221;-76
2022/12/07 10:52:26;;;;;;;3.20;0.68;;;;;12.00;101485.00;;;;5017133;28;20193;-76
2022/12/07 10:55:12;;;;;;;1.60;0.80;;;;;12.00;101494.00;;;;5022204;28;20674;-77
2022/12/07 10:57:52;;;;;;;3.40;0.88;;;;;12.10;101486.00;;;;5008417;28;20224;-77
2022/12/07 11:00:24;;;;;;;1.58;0.80;;;;;12.20;101479.00;;;;5013879;28;20197;-76
2022/12/07 11:03:04;;;;;;;1.70;0.70;;;;;12.30;101472.00;;;;5014198;28;20208;-76
2022/12/07 11:05:40;;;;;;;1.88;0.68;;;;;12.40;101481.00;;;;5008721;28;20220;-77
2022/12/07 11:08:18;;;;;;;6.40;0.85;;;;;12.50;101476.00;;;;5010318;28;20224;-77
2022/12/07 11:10:53;;;;;;;0.82;0.45;;;;;12.60;101477.00;;;;5033688;28;20196;-77
2022/12/07 11:13:37;;;;;;;0.82;0.40;;;;;12.60;101479.00;;;;5045826;28;20772;-76
2022/12/07 11:16:35;;;;;;;2.63;0.85;;;;;12.60;101482.00;;;;5014791;28;20201;-77
2022/12/07 11:19:25;;;;;;;2.88;0.80;;;;;12.70;101484.00;;;;5014386;28;20204;-77
2022/12/07 11:21:58;;;;;;;1.23;0.50;;;;;12.70;101480.00;;;;5012396;28;20204;-77
2022/12/07 11:24:33;;;;;;;2.13;0.75;;;;;12.80;101478.00;;;;5024419;28;20662;-77
2022/12/07 11:27:10;;;;;;;1.50;0.60;;;;;12.80;101477.00;;;;5022959;28;20199;-77
2022/12/07 11:29:54;;;;;;;2.22;0.77;;;;;12.80;101474.00;;;;5028606;28;20574;-77
2022/12/07 11:32:59;;;;;;;1.40;0.50;;;;;12.80;101466.00;;;;5030505;28;20192;-77
2022/12/07 11:35:38;;;;;;;1.98;0.60;;;;;12.90;101467.00;;;;5020978;28;20716;-77
2022/12/07 11:38:12;;;;;;;1.42;0.45;;;;;12.90;101464.00;;;;5016306;28;20223;-77
2022/12/07 11:40:41;;;;;;;5.15;0.75;;;;;13.00;101463.00;;;;5029571;28;20199;-77
2022/12/07 11:43:19;;;;;;;2.15;0.28;;;;;12.90;101455.00;;;;5028618;28;20204;-77
2022/12/07 11:45:53;;;;;;;1.73;0.40;;;;;13.00;101444.00;;;;5029210;28;20196;-77
2022/12/07 11:48:29;;;;;;;1.58;0.30;;;;;13.00;101440.00;;;;5019188;28;20219;-77
2022/12/07 11:51:00;;;;;;;2.72;0.60;;;;;13.00;101438.00;;;;5012648;28;20215;-77
2022/12/07 11:53:32;;;;;;;1.73;0.35;;;;;13.00;101447.00;;;;5020220;28;20293;-77
2022/12/07 11:56:04;;;;;;;3.35;0.45;;;;;13.10;101441.00;;;;5018711;28;20616;-77
2022/12/07 11:58:49;;;;;;;3.40;0.55;;;;;13.00;101446.00;;;;5015798;28;20197;-77
2022/12/07 12:01:40;;;;;;;2.47;0.50;;;;;13.10;101438.00;;;;5008328;28;20667;-77
2022/12/07 12:04:23;;;;;;;0.50;0.30;;;;;13.10;101441.00;;;;5013405;28;20283;-74
2022/12/07 12:06:51;;;;;;;5.47;0.80;;;;;13.20;101435.00;;;;5008307;28;20221;-74
2022/12/07 12:09:24;;;;;;;2.10;0.32;;;;;13.20;101426.00;;;;5023530;28;20228;-76
2022/12/07 12:12:10;;;;;;;1.23;0.45;;;;;13.20;101424.00;;;;5021750;28;20193;-77
2022/12/07 12:14:47;;;;;;;1.45;0.22;;;;;13.20;101423.00;;;;5015419;28;20278;-77
2022/12/07 12:17:42;;;;;;;1.95;0.50;;;;;13.10;101419.00;;;;5015960;28;20204;-77
2022/12/07 12:20:21;;;;;;;0.65;0.40;;;;;13.10;101418.00;;;;5015455;28;20629;-77
2022/12/07 12:22:54;;;;;;;2.40;0.50;;;;;13.20;101418.00;;;;5008627;28;20200;-77
2022/12/07 12:25:25;;;;;;;2.97;0.47;;;;;13.20;101418.00;;;;5021188;28;20193;-76
2022/12/07 12:27:55;;;;;;;1.08;0.30;;;;;13.20;101416.00;;;;5016799;28;20219;-77
2022/12/07 12:30:35;;;;;;;3.42;0.70;;;;;13.10;101410.00;;;;5047849;28;20204;-77
2022/12/07 12:33:13;;;;;;;2.75;0.50;;;;;13.20;101405.00;;;;5020830;28;20946;-77
2022/12/07 12:35:41;;;;;;;0.40;0.30;;;;;13.20;101403.00;;;;5012268;28;20250;-76
2022/12/07 12:38:34;;;;;;;1.42;0.55;;;;;13.10;101404.00;;;;5005916;28;20205;-77